sensor_id;sensor_type;location;lat;lon;timestamp;temperature;humidity
80250;DHT22;69561;37.974;23.708;2023-04-29T00:01:32;23.10;35.40
80250;DHT22;69561;37.974;23.708;2023-04-29T00:03:58;23.10;35.30
80250;DHT22;69561;37.974;23.708;2023-04-29T00:06:24;23.10;35.40
80250;DHT22;69561;37.974;23.708;2023-04-29T00:08:50;23.10;35.30
80250;DHT22;69561;37.974;23.708;2023-04-29T00:11:16;23.10;35.30
80250;DHT22;69561;37.974;23.708;2023-04-29T00:13:42;23.10;35.30
80250;DHT22;69561;37.974;23.708;2023-04-29T00:16:08;23.10;35.30
80250;DHT22;69561;37.974;23.708;2023-04-29T00:18:36;23.10;35.30
80250;DHT22;69561;37.974;23.708;2023-04-29T00:21:02;23.10;35.30
80250;DHT22;69561;37.974;23.708;2023-04-29T00:23:31;23.10;35.30
80250;DHT22;69561;37.974;23.708;2023-04-29T00:25:57;23.10;35.40
80250;DHT22;69561;37.974;23.708;2023-04-29T00:28:23;23.10;35.40
80250;DHT22;69561;37.974;23.708;2023-04-29T00:30:48;23.10;35.40
80250;DHT22;69561;37.974;23.708;2023-04-29T00:33:14;23.10;35.40
80250;DHT22;69561;37.974;23.708;2023-04-29T00:35:40;23.10;35.40
80250;DHT22;69561;37.974;23.708;2023-04-29T00:38:05;23.10;35.50
80250;DHT22;69561;37.974;23.708;2023-04-29T00:40:31;23.10;35.40
80250;DHT22;69561;37.974;23.708;2023-04-29T00:42:57;23.00;35.40
80250;DHT22;69561;37.974;23.708;2023-04-29T00:45:23;23.10;35.50
80250;DHT22;69561;37.974;23.708;2023-04-29T00:47:48;23.10;35.50
80250;DHT22;69561;37.974;23.708;2023-04-29T00:50:14;23.00;35.40
80250;DHT22;69561;37.974;23.708;2023-04-29T00:52:41;23.00;35.40
80250;DHT22;69561;37.974;23.708;2023-04-29T00:55:07;23.00;35.50
80250;DHT22;69561;37.974;23.708;2023-04-29T00:57:33;23.00;35.50
80250;DHT22;69561;37.974;23.708;2023-04-29T00:59:59;23.10;35.60
80250;DHT22;69561;37.974;23.708;2023-04-29T01:02:26;23.00;35.50
80250;DHT22;69561;37.974;23.708;2023-04-29T01:04:52;23.10;35.60
80250;DHT22;69561;37.974;23.708;2023-04-29T01:07:33;23.10;35.90
80250;DHT22;69561;37.974;23.708;2023-04-29T01:10:21;23.00;35.60
80250;DHT22;69561;37.974;23.708;2023-04-29T01:13:03;23.10;35.70
80250;DHT22;69561;37.974;23.708;2023-04-29T01:18:10;23.00;35.70
80250;DHT22;69561;37.974;23.708;2023-04-29T01:20:37;23.00;35.70
80250;DHT22;69561;37.974;23.708;2023-04-29T01:23:03;23.00;35.70
80250;DHT22;69561;37.974;23.708;2023-04-29T01:25:29;23.00;35.80
80250;DHT22;69561;37.974;23.708;2023-04-29T01:30:58;23.00;35.80
80250;DHT22;69561;37.974;23.708;2023-04-29T01:41:47;23.00;35.90
80250;DHT22;69561;37.974;23.708;2023-04-29T01:44:21;23.00;35.80
80250;DHT22;69561;37.974;23.708;2023-04-29T01:46:52;23.00;35.80
80250;DHT22;69561;37.974;23.708;2023-04-29T01:49:24;23.00;35.90
80250;DHT22;69561;37.974;23.708;2023-04-29T01:51:50;23.00;35.90
80250;DHT22;69561;37.974;23.708;2023-04-29T01:54:15;23.00;35.80
80250;DHT22;69561;37.974;23.708;2023-04-29T01:56:41;23.00;35.90
80250;DHT22;69561;37.974;23.708;2023-04-29T01:59:07;23.00;35.90
80250;DHT22;69561;37.974;23.708;2023-04-29T02:01:33;23.00;35.90
80250;DHT22;69561;37.974;23.708;2023-04-29T02:03:59;23.00;35.90
80250;DHT22;69561;37.974;23.708;2023-04-29T02:06:25;23.00;35.80
80250;DHT22;69561;37.974;23.708;2023-04-29T02:08:51;23.00;35.90
80250;DHT22;69561;37.974;23.708;2023-04-29T02:11:16;23.00;35.80
80250;DHT22;69561;37.974;23.708;2023-04-29T02:13:42;23.00;35.80
80250;DHT22;69561;37.974;23.708;2023-04-29T02:16:09;23.00;35.80
80250;DHT22;69561;37.974;23.708;2023-04-29T02:18:35;23.00;35.80
80250;DHT22;69561;37.974;23.708;2023-04-29T02:21:01;23.00;35.80
80250;DHT22;69561;37.974;23.708;2023-04-29T02:23:27;23.00;35.80
80250;DHT22;69561;37.974;23.708;2023-04-29T02:25:53;23.00;35.80
80250;DHT22;69561;37.974;23.708;2023-04-29T02:28:20;23.00;35.90
80250;DHT22;69561;37.974;23.708;2023-04-29T02:30:45;23.00;35.80
80250;DHT22;69561;37.974;23.708;2023-04-29T02:33:11;23.00;35.80
80250;DHT22;69561;37.974;23.708;2023-04-29T02:35:37;23.00;35.80
80250;DHT22;69561;37.974;23.708;2023-04-29T02:38:02;23.00;36.90
80250;DHT22;69561;37.974;23.708;2023-04-29T02:40:28;23.00;35.90
80250;DHT22;69561;37.974;23.708;2023-04-29T02:42:54;23.00;35.90
80250;DHT22;69561;37.974;23.708;2023-04-29T02:45:19;23.00;35.90
80250;DHT22;69561;37.974;23.708;2023-04-29T02:47:45;23.00;35.90
80250;DHT22;69561;37.974;23.708;2023-04-29T02:50:11;23.00;35.80
80250;DHT22;69561;37.974;23.708;2023-04-29T02:52:37;23.00;35.80
80250;DHT22;69561;37.974;23.708;2023-04-29T02:55:03;23.00;35.80
80250;DHT22;69561;37.974;23.708;2023-04-29T02:57:28;23.00;35.90
80250;DHT22;69561;37.974;23.708;2023-04-29T02:59:54;23.00;35.80
80250;DHT22;69561;37.974;23.708;2023-04-29T03:02:20;23.00;35.90
80250;DHT22;69561;37.974;23.708;2023-04-29T03:04:45;23.00;35.80
80250;DHT22;69561;37.974;23.708;2023-04-29T03:07:11;23.00;35.80
80250;DHT22;69561;37.974;23.708;2023-04-29T03:09:37;23.00;35.80
80250;DHT22;69561;37.974;23.708;2023-04-29T03:12:03;23.00;35.80
80250;DHT22;69561;37.974;23.708;2023-04-29T03:14:28;23.00;35.80
80250;DHT22;69561;37.974;23.708;2023-04-29T03:16:54;23.00;35.80
80250;DHT22;69561;37.974;23.708;2023-04-29T03:19:21;23.00;35.80
80250;DHT22;69561;37.974;23.708;2023-04-29T03:21:46;23.00;35.80
80250;DHT22;69561;37.974;23.708;2023-04-29T03:24:12;23.00;35.80
80250;DHT22;69561;37.974;23.708;2023-04-29T03:26:38;23.00;35.80
80250;DHT22;69561;37.974;23.708;2023-04-29T03:29:04;23.00;35.70
80250;DHT22;69561;37.974;23.708;2023-04-29T03:31:29;23.00;35.70
80250;DHT22;69561;37.974;23.708;2023-04-29T03:33:55;23.00;36.70
80250;DHT22;69561;37.974;23.708;2023-04-29T03:36:21;23.00;35.70
80250;DHT22;69561;37.974;23.708;2023-04-29T03:38:46;22.90;35.70
80250;DHT22;69561;37.974;23.708;2023-04-29T03:41:12;23.00;35.70
80250;DHT22;69561;37.974;23.708;2023-04-29T03:43:38;23.00;35.70
80250;DHT22;69561;37.974;23.708;2023-04-29T03:46:03;23.00;35.70
80250;DHT22;69561;37.974;23.708;2023-04-29T03:48:29;23.00;35.70
80250;DHT22;69561;37.974;23.708;2023-04-29T03:50:55;23.00;35.70
80250;DHT22;69561;37.974;23.708;2023-04-29T03:53:21;22.90;35.60
80250;DHT22;69561;37.974;23.708;2023-04-29T03:55:47;23.00;35.70
80250;DHT22;69561;37.974;23.708;2023-04-29T03:58:13;22.90;35.60
80250;DHT22;69561;37.974;23.708;2023-04-29T04:00:39;23.00;35.70
80250;DHT22;69561;37.974;23.708;2023-04-29T04:03:04;23.00;35.70
80250;DHT22;69561;37.974;23.708;2023-04-29T04:05:30;23.00;35.70
80250;DHT22;69561;37.974;23.708;2023-04-29T04:07:56;23.00;35.70
80250;DHT22;69561;37.974;23.708;2023-04-29T04:10:22;23.00;35.70
80250;DHT22;69561;37.974;23.708;2023-04-29T04:12:47;23.10;35.60
80250;DHT22;69561;37.974;23.708;2023-04-29T04:15:13;23.30;35.50
80250;DHT22;69561;37.974;23.708;2023-04-29T04:17:39;23.40;35.30
80250;DHT22;69561;37.974;23.708;2023-04-29T04:20:05;23.50;35.00
80250;DHT22;69561;37.974;23.708;2023-04-29T04:22:31;23.60;35.00
80250;DHT22;69561;37.974;23.708;2023-04-29T04:24:57;23.80;34.80
80250;DHT22;69561;37.974;23.708;2023-04-29T04:27:22;23.90;34.60
80250;DHT22;69561;37.974;23.708;2023-04-29T04:29:52;24.10;34.50
80250;DHT22;69561;37.974;23.708;2023-04-29T04:32:18;24.20;34.20
80250;DHT22;69561;37.974;23.708;2023-04-29T04:34:44;24.30;34.10
80250;DHT22;69561;37.974;23.708;2023-04-29T04:37:09;24.50;33.80
80250;DHT22;69561;37.974;23.708;2023-04-29T04:39:37;24.80;33.80
80250;DHT22;69561;37.974;23.708;2023-04-29T04:42:03;25.00;33.20
80250;DHT22;69561;37.974;23.708;2023-04-29T04:44:28;25.20;32.90
80250;DHT22;69561;37.974;23.708;2023-04-29T04:46:54;25.30;32.80
80250;DHT22;69561;37.974;23.708;2023-04-29T04:49:22;25.40;32.60
80250;DHT22;69561;37.974;23.708;2023-04-29T04:51:49;25.60;32.50
80250;DHT22;69561;37.974;23.708;2023-04-29T04:54:16;25.60;32.30
80250;DHT22;69561;37.974;23.708;2023-04-29T04:56:41;25.40;32.40
80250;DHT22;69561;37.974;23.708;2023-04-29T04:59:07;25.20;32.70
80250;DHT22;69561;37.974;23.708;2023-04-29T05:01:33;25.00;33.10
80250;DHT22;69561;37.974;23.708;2023-04-29T05:03:58;24.70;33.30
80250;DHT22;69561;37.974;23.708;2023-04-29T05:06:25;24.60;33.60
80250;DHT22;69561;37.974;23.708;2023-04-29T05:08:51;24.40;33.80
80250;DHT22;69561;37.974;23.708;2023-04-29T05:11:17;24.30;34.20
80250;DHT22;69561;37.974;23.708;2023-04-29T05:13:43;24.20;34.40
80250;DHT22;69561;37.974;23.708;2023-04-29T05:16:09;24.10;34.50
80250;DHT22;69561;37.974;23.708;2023-04-29T05:18:35;24.00;34.60
80250;DHT22;69561;37.974;23.708;2023-04-29T05:21:01;24.00;34.80
80250;DHT22;69561;37.974;23.708;2023-04-29T05:23:26;23.90;34.90
80250;DHT22;69561;37.974;23.708;2023-04-29T05:25:52;23.90;35.00
80250;DHT22;69561;37.974;23.708;2023-04-29T05:28:18;23.90;35.10
80250;DHT22;69561;37.974;23.708;2023-04-29T05:30:44;23.80;35.10
80250;DHT22;69561;37.974;23.708;2023-04-29T05:33:10;23.80;35.20
80250;DHT22;69561;37.974;23.708;2023-04-29T05:35:36;23.80;35.20
80250;DHT22;69561;37.974;23.708;2023-04-29T05:38:02;23.80;35.20
80250;DHT22;69561;37.974;23.708;2023-04-29T05:40:28;23.90;35.30
80250;DHT22;69561;37.974;23.708;2023-04-29T05:42:54;23.90;35.20
80250;DHT22;69561;37.974;23.708;2023-04-29T05:45:20;23.90;35.20
80250;DHT22;69561;37.974;23.708;2023-04-29T05:47:45;23.90;36.10
80250;DHT22;69561;37.974;23.708;2023-04-29T05:50:11;23.90;35.20
80250;DHT22;69561;37.974;23.708;2023-04-29T05:52:37;23.90;35.30
80250;DHT22;69561;37.974;23.708;2023-04-29T05:55:03;23.90;35.30
80250;DHT22;69561;37.974;23.708;2023-04-29T05:57:29;23.90;35.30
80250;DHT22;69561;37.974;23.708;2023-04-29T05:59:55;23.90;35.30
80250;DHT22;69561;37.974;23.708;2023-04-29T06:02:21;23.90;35.40
80250;DHT22;69561;37.974;23.708;2023-04-29T06:04:48;23.90;35.60
80250;DHT22;69561;37.974;23.708;2023-04-29T06:07:13;23.90;35.60
80250;DHT22;69561;37.974;23.708;2023-04-29T06:09:39;23.90;35.60
80250;DHT22;69561;37.974;23.708;2023-04-29T06:12:05;23.90;35.70
80250;DHT22;69561;37.974;23.708;2023-04-29T06:14:31;24.00;35.90
80250;DHT22;69561;37.974;23.708;2023-04-29T06:16:57;24.00;35.90
80250;DHT22;69561;37.974;23.708;2023-04-29T06:19:22;24.00;36.00
80250;DHT22;69561;37.974;23.708;2023-04-29T06:21:49;24.00;36.90
80250;DHT22;69561;37.974;23.708;2023-04-29T06:24:15;24.00;35.80
80250;DHT22;69561;37.974;23.708;2023-04-29T06:26:41;24.00;35.70
80250;DHT22;69561;37.974;23.708;2023-04-29T06:29:08;24.00;35.70
80250;DHT22;69561;37.974;23.708;2023-04-29T06:31:34;24.00;35.70
80250;DHT22;69561;37.974;23.708;2023-04-29T06:33:59;24.00;35.60
80250;DHT22;69561;37.974;23.708;2023-04-29T06:36:25;24.00;35.60
80250;DHT22;69561;37.974;23.708;2023-04-29T06:38:51;24.00;35.60
80250;DHT22;69561;37.974;23.708;2023-04-29T06:41:17;24.00;35.60
80250;DHT22;69561;37.974;23.708;2023-04-29T06:43:43;24.00;35.50
80250;DHT22;69561;37.974;23.708;2023-04-29T06:46:09;24.10;35.60
80250;DHT22;69561;37.974;23.708;2023-04-29T06:48:35;24.10;35.50
80250;DHT22;69561;37.974;23.708;2023-04-29T06:51:01;24.10;35.60
80250;DHT22;69561;37.974;23.708;2023-04-29T06:53:27;24.10;35.50
80250;DHT22;69561;37.974;23.708;2023-04-29T06:55:53;24.10;35.70
80250;DHT22;69561;37.974;23.708;2023-04-29T06:58:19;24.00;35.60
80250;DHT22;69561;37.974;23.708;2023-04-29T07:00:46;24.10;35.60
80250;DHT22;69561;37.974;23.708;2023-04-29T07:03:13;24.00;35.60
80250;DHT22;69561;37.974;23.708;2023-04-29T07:05:39;24.00;35.70
80250;DHT22;69561;37.974;23.708;2023-04-29T07:08:07;24.00;35.70
80250;DHT22;69561;37.974;23.708;2023-04-29T07:10:34;24.00;35.70
80250;DHT22;69561;37.974;23.708;2023-04-29T07:13:00;24.00;35.70
80250;DHT22;69561;37.974;23.708;2023-04-29T07:15:26;24.00;35.70
80250;DHT22;69561;37.974;23.708;2023-04-29T07:17:52;24.00;35.60
80250;DHT22;69561;37.974;23.708;2023-04-29T07:20:18;24.00;35.60
80250;DHT22;69561;37.974;23.708;2023-04-29T07:22:44;24.00;35.50
80250;DHT22;69561;37.974;23.708;2023-04-29T07:25:10;24.00;35.50
80250;DHT22;69561;37.974;23.708;2023-04-29T07:27:36;24.00;35.50
80250;DHT22;69561;37.974;23.708;2023-04-29T07:30:03;24.10;35.60
80250;DHT22;69561;37.974;23.708;2023-04-29T07:32:29;24.00;35.50
80250;DHT22;69561;37.974;23.708;2023-04-29T07:34:58;24.10;35.50
80250;DHT22;69561;37.974;23.708;2023-04-29T07:37:24;24.10;35.40
80250;DHT22;69561;37.974;23.708;2023-04-29T07:39:51;24.10;35.40
80250;DHT22;69561;37.974;23.708;2023-04-29T07:42:17;24.10;35.40
80250;DHT22;69561;37.974;23.708;2023-04-29T07:44:43;24.10;35.40
80250;DHT22;69561;37.974;23.708;2023-04-29T07:47:10;24.10;35.40
80250;DHT22;69561;37.974;23.708;2023-04-29T07:49:36;24.10;35.50
80250;DHT22;69561;37.974;23.708;2023-04-29T07:52:04;24.10;35.40
80250;DHT22;69561;37.974;23.708;2023-04-29T07:54:30;24.10;35.40
80250;DHT22;69561;37.974;23.708;2023-04-29T07:56:59;24.10;35.40
80250;DHT22;69561;37.974;23.708;2023-04-29T07:59:25;24.10;35.40
80250;DHT22;69561;37.974;23.708;2023-04-29T08:01:51;24.10;35.40
80250;DHT22;69561;37.974;23.708;2023-04-29T08:04:18;24.10;35.40
80250;DHT22;69561;37.974;23.708;2023-04-29T08:06:43;24.10;35.50
80250;DHT22;69561;37.974;23.708;2023-04-29T08:09:09;24.10;35.40
80250;DHT22;69561;37.974;23.708;2023-04-29T08:11:35;24.20;35.50
80250;DHT22;69561;37.974;23.708;2023-04-29T08:14:01;24.10;35.50
80250;DHT22;69561;37.974;23.708;2023-04-29T08:16:27;24.10;35.50
80250;DHT22;69561;37.974;23.708;2023-04-29T08:18:53;24.10;35.50
80250;DHT22;69561;37.974;23.708;2023-04-29T08:21:19;24.10;35.60
80250;DHT22;69561;37.974;23.708;2023-04-29T08:23:45;24.20;35.60
80250;DHT22;69561;37.974;23.708;2023-04-29T08:26:11;24.20;36.60
80250;DHT22;69561;37.974;23.708;2023-04-29T08:28:39;24.10;35.60
80250;DHT22;69561;37.974;23.708;2023-04-29T08:31:05;24.20;35.60
80250;DHT22;69561;37.974;23.708;2023-04-29T08:33:38;24.10;35.70
80250;DHT22;69561;37.974;23.708;2023-04-29T08:36:04;24.10;35.70
80250;DHT22;69561;37.974;23.708;2023-04-29T08:38:29;24.20;35.80
80250;DHT22;69561;37.974;23.708;2023-04-29T08:40:55;24.10;35.70
80250;DHT22;69561;37.974;23.708;2023-04-29T08:43:21;24.10;35.70
80250;DHT22;69561;37.974;23.708;2023-04-29T08:45:48;24.20;35.70
80250;DHT22;69561;37.974;23.708;2023-04-29T08:48:17;24.20;35.70
80250;DHT22;69561;37.974;23.708;2023-04-29T08:50:44;24.20;35.70
80250;DHT22;69561;37.974;23.708;2023-04-29T08:53:11;24.10;35.70
80250;DHT22;69561;37.974;23.708;2023-04-29T08:55:46;24.10;35.80
80250;DHT22;69561;37.974;23.708;2023-04-29T08:58:13;24.20;35.70
80250;DHT22;69561;37.974;23.708;2023-04-29T09:00:41;24.20;35.80
80250;DHT22;69561;37.974;23.708;2023-04-29T09:05:42;24.10;35.70
80250;DHT22;69561;37.974;23.708;2023-04-29T09:08:11;24.20;35.80
80250;DHT22;69561;37.974;23.708;2023-04-29T09:10:40;24.20;35.80
80250;DHT22;69561;37.974;23.708;2023-04-29T09:13:06;24.20;35.80
80250;DHT22;69561;37.974;23.708;2023-04-29T09:15:38;24.20;35.80
80250;DHT22;69561;37.974;23.708;2023-04-29T09:18:07;24.20;35.80
80250;DHT22;69561;37.974;23.708;2023-04-29T09:20:32;24.10;35.80
80250;DHT22;69561;37.974;23.708;2023-04-29T09:23:02;24.20;35.80
80250;DHT22;69561;37.974;23.708;2023-04-29T09:25:29;24.20;35.80
80250;DHT22;69561;37.974;23.708;2023-04-29T09:27:56;24.20;35.80
80250;DHT22;69561;37.974;23.708;2023-04-29T09:30:22;24.20;35.90
80250;DHT22;69561;37.974;23.708;2023-04-29T09:33:05;24.20;35.90
80250;DHT22;69561;37.974;23.708;2023-04-29T09:35:31;24.20;36.00
80250;DHT22;69561;37.974;23.708;2023-04-29T09:38:16;24.20;36.00
80250;DHT22;69561;37.974;23.708;2023-04-29T09:40:43;24.20;35.90
80250;DHT22;69561;37.974;23.708;2023-04-29T09:43:13;24.20;35.90
80250;DHT22;69561;37.974;23.708;2023-04-29T09:45:44;24.20;35.90
80250;DHT22;69561;37.974;23.708;2023-04-29T09:48:11;24.20;36.00
80250;DHT22;69561;37.974;23.708;2023-04-29T09:50:38;24.20;36.00
80250;DHT22;69561;37.974;23.708;2023-04-29T09:53:05;24.20;36.00
80250;DHT22;69561;37.974;23.708;2023-04-29T09:56:00;24.20;36.00
80250;DHT22;69561;37.974;23.708;2023-04-29T09:58:28;24.10;36.00
80250;DHT22;69561;37.974;23.708;2023-04-29T10:00:58;24.20;36.10
80250;DHT22;69561;37.974;23.708;2023-04-29T10:03:30;24.20;36.10
80250;DHT22;69561;37.974;23.708;2023-04-29T10:05:57;24.20;36.10
80250;DHT22;69561;37.974;23.708;2023-04-29T10:08:23;24.20;36.10
80250;DHT22;69561;37.974;23.708;2023-04-29T10:10:50;24.20;36.10
80250;DHT22;69561;37.974;23.708;2023-04-29T10:13:23;24.20;36.10
80250;DHT22;69561;37.974;23.708;2023-04-29T10:18:48;24.10;36.10
80250;DHT22;69561;37.974;23.708;2023-04-29T10:21:13;24.20;36.20
80250;DHT22;69561;37.974;23.708;2023-04-29T10:23:41;24.20;36.20
80250;DHT22;69561;37.974;23.708;2023-04-29T10:26:11;24.20;36.20
80250;DHT22;69561;37.974;23.708;2023-04-29T10:28:38;24.20;36.20
80250;DHT22;69561;37.974;23.708;2023-04-29T10:31:05;24.20;36.20
80250;DHT22;69561;37.974;23.708;2023-04-29T10:33:34;24.20;36.20
80250;DHT22;69561;37.974;23.708;2023-04-29T10:36:02;24.20;36.20
80250;DHT22;69561;37.974;23.708;2023-04-29T10:38:39;24.20;36.20
80250;DHT22;69561;37.974;23.708;2023-04-29T10:41:16;24.20;36.20
80250;DHT22;69561;37.974;23.708;2023-04-29T10:43:43;24.20;36.20
80250;DHT22;69561;37.974;23.708;2023-04-29T10:48:48;24.20;36.30
80250;DHT22;69561;37.974;23.708;2023-04-29T10:51:34;24.20;36.20
80250;DHT22;69561;37.974;23.708;2023-04-29T10:54:21;24.20;36.20
80250;DHT22;69561;37.974;23.708;2023-04-29T10:56:51;24.20;36.30
80250;DHT22;69561;37.974;23.708;2023-04-29T11:01:53;24.20;36.30
80250;DHT22;69561;37.974;23.708;2023-04-29T11:04:20;24.20;36.30
80250;DHT22;69561;37.974;23.708;2023-04-29T11:06:51;24.20;36.30
80250;DHT22;69561;37.974;23.708;2023-04-29T11:09:24;24.20;36.30
80250;DHT22;69561;37.974;23.708;2023-04-29T11:11:58;24.20;36.30
80250;DHT22;69561;37.974;23.708;2023-04-29T11:14:41;24.20;36.30
80250;DHT22;69561;37.974;23.708;2023-04-29T11:17:15;24.20;36.30
80250;DHT22;69561;37.974;23.708;2023-04-29T11:19:43;24.20;36.20
80250;DHT22;69561;37.974;23.708;2023-04-29T11:24:56;24.20;36.20
80250;DHT22;69561;37.974;23.708;2023-04-29T11:27:24;24.20;36.20
80250;DHT22;69561;37.974;23.708;2023-04-29T11:29:54;24.20;36.30
80250;DHT22;69561;37.974;23.708;2023-04-29T11:32:26;24.20;36.20
80250;DHT22;69561;37.974;23.708;2023-04-29T11:34:52;24.20;37.20
80250;DHT22;69561;37.974;23.708;2023-04-29T11:37:23;24.20;36.20
80250;DHT22;69561;37.974;23.708;2023-04-29T11:39:49;24.20;36.30
80250;DHT22;69561;37.974;23.708;2023-04-29T11:42:21;24.20;36.20
80250;DHT22;69561;37.974;23.708;2023-04-29T11:44:50;24.20;36.20
80250;DHT22;69561;37.974;23.708;2023-04-29T11:47:16;24.20;36.20
80250;DHT22;69561;37.974;23.708;2023-04-29T11:49:42;24.20;36.20
80250;DHT22;69561;37.974;23.708;2023-04-29T11:52:08;24.20;36.20
80250;DHT22;69561;37.974;23.708;2023-04-29T11:54:34;24.20;36.20
80250;DHT22;69561;37.974;23.708;2023-04-29T11:57:00;24.20;36.20
80250;DHT22;69561;37.974;23.708;2023-04-29T11:59:30;24.20;36.20
80250;DHT22;69561;37.974;23.708;2023-04-29T12:01:57;24.20;36.10
80250;DHT22;69561;37.974;23.708;2023-04-29T12:04:24;24.20;36.10
80250;DHT22;69561;37.974;23.708;2023-04-29T12:06:51;24.20;36.00
80250;DHT22;69561;37.974;23.708;2023-04-29T12:09:17;24.20;36.00
80250;DHT22;69561;37.974;23.708;2023-04-29T12:11:44;24.20;36.00
80250;DHT22;69561;37.974;23.708;2023-04-29T12:14:12;24.20;36.00
80250;DHT22;69561;37.974;23.708;2023-04-29T12:16:38;24.20;36.00
80250;DHT22;69561;37.974;23.708;2023-04-29T12:19:04;24.20;35.90
80250;DHT22;69561;37.974;23.708;2023-04-29T12:21:33;24.20;35.90
80250;DHT22;69561;37.974;23.708;2023-04-29T12:24:01;24.20;35.90
80250;DHT22;69561;37.974;23.708;2023-04-29T12:26:29;24.20;36.00
80250;DHT22;69561;37.974;23.708;2023-04-29T12:28:56;24.20;35.90
80250;DHT22;69561;37.974;23.708;2023-04-29T12:31:25;24.20;35.90
80250;DHT22;69561;37.974;23.708;2023-04-29T12:33:56;24.20;35.90
80250;DHT22;69561;37.974;23.708;2023-04-29T12:36:22;24.20;35.80
80250;DHT22;69561;37.974;23.708;2023-04-29T12:38:48;24.20;35.90
80250;DHT22;69561;37.974;23.708;2023-04-29T12:41:14;24.20;35.90
80250;DHT22;69561;37.974;23.708;2023-04-29T12:43:42;24.20;35.90
80250;DHT22;69561;37.974;23.708;2023-04-29T12:46:09;24.20;35.90
80250;DHT22;69561;37.974;23.708;2023-04-29T12:48:37;24.20;35.90
80250;DHT22;69561;37.974;23.708;2023-04-29T12:51:03;24.20;35.80
80250;DHT22;69561;37.974;23.708;2023-04-29T12:53:30;24.20;35.90
80250;DHT22;69561;37.974;23.708;2023-04-29T12:55:56;24.20;35.90
80250;DHT22;69561;37.974;23.708;2023-04-29T12:58:23;24.20;35.90
80250;DHT22;69561;37.974;23.708;2023-04-29T13:00:49;24.20;36.00
80250;DHT22;69561;37.974;23.708;2023-04-29T13:03:15;24.20;35.90
80250;DHT22;69561;37.974;23.708;2023-04-29T13:05:40;24.20;36.00
80250;DHT22;69561;37.974;23.708;2023-04-29T13:08:07;24.20;36.00
80250;DHT22;69561;37.974;23.708;2023-04-29T13:10:34;24.20;36.00
80250;DHT22;69561;37.974;23.708;2023-04-29T13:13:00;24.20;36.10
80250;DHT22;69561;37.974;23.708;2023-04-29T13:15:26;24.20;36.10
80250;DHT22;69561;37.974;23.708;2023-04-29T13:17:52;24.20;36.10
80250;DHT22;69561;37.974;23.708;2023-04-29T13:20:18;24.20;36.10
80250;DHT22;69561;37.974;23.708;2023-04-29T13:22:45;24.20;36.20
80250;DHT22;69561;37.974;23.708;2023-04-29T13:25:10;24.20;37.20
80250;DHT22;69561;37.974;23.708;2023-04-29T13:27:37;24.20;36.20
80250;DHT22;69561;37.974;23.708;2023-04-29T13:30:04;24.20;36.20
80250;DHT22;69561;37.974;23.708;2023-04-29T13:32:30;24.20;36.20
80250;DHT22;69561;37.974;23.708;2023-04-29T13:34:56;24.20;36.20
80250;DHT22;69561;37.974;23.708;2023-04-29T13:37:22;24.20;36.20
80250;DHT22;69561;37.974;23.708;2023-04-29T13:39:47;24.20;36.30
80250;DHT22;69561;37.974;23.708;2023-04-29T13:42:13;24.20;36.30
80250;DHT22;69561;37.974;23.708;2023-04-29T13:44:39;24.20;36.40
80250;DHT22;69561;37.974;23.708;2023-04-29T13:47:15;24.20;36.40
80250;DHT22;69561;37.974;23.708;2023-04-29T13:49:42;24.20;36.40
80250;DHT22;69561;37.974;23.708;2023-04-29T13:52:11;24.20;36.40
80250;DHT22;69561;37.974;23.708;2023-04-29T13:54:37;24.20;36.50
80250;DHT22;69561;37.974;23.708;2023-04-29T13:57:03;24.20;36.50
80250;DHT22;69561;37.974;23.708;2023-04-29T13:59:33;24.20;36.60
80250;DHT22;69561;37.974;23.708;2023-04-29T14:02:00;24.20;36.70
80250;DHT22;69561;37.974;23.708;2023-04-29T14:04:26;24.20;36.70
80250;DHT22;69561;37.974;23.708;2023-04-29T14:06:53;24.20;36.70
80250;DHT22;69561;37.974;23.708;2023-04-29T14:09:19;24.10;36.70
80250;DHT22;69561;37.974;23.708;2023-04-29T14:11:46;24.10;36.80
80250;DHT22;69561;37.974;23.708;2023-04-29T14:14:11;24.10;36.80
80250;DHT22;69561;37.974;23.708;2023-04-29T14:16:37;24.10;36.80
80250;DHT22;69561;37.974;23.708;2023-04-29T14:19:03;24.10;36.80
80250;DHT22;69561;37.974;23.708;2023-04-29T14:21:29;24.20;36.90
80250;DHT22;69561;37.974;23.708;2023-04-29T14:23:57;24.20;36.90
80250;DHT22;69561;37.974;23.708;2023-04-29T14:26:24;24.20;36.90
80250;DHT22;69561;37.974;23.708;2023-04-29T14:28:51;24.20;36.90
80250;DHT22;69561;37.974;23.708;2023-04-29T14:31:23;24.20;37.00
80250;DHT22;69561;37.974;23.708;2023-04-29T14:33:48;24.20;36.90
80250;DHT22;69561;37.974;23.708;2023-04-29T14:36:15;24.20;37.00
80250;DHT22;69561;37.974;23.708;2023-04-29T14:38:41;24.10;36.90
80250;DHT22;69561;37.974;23.708;2023-04-29T14:41:07;24.20;37.00
80250;DHT22;69561;37.974;23.708;2023-04-29T14:43:34;24.20;37.10
80250;DHT22;69561;37.974;23.708;2023-04-29T14:45:59;24.20;37.00
80250;DHT22;69561;37.974;23.708;2023-04-29T14:48:25;24.20;37.00
80250;DHT22;69561;37.974;23.708;2023-04-29T14:50:51;24.20;37.00
80250;DHT22;69561;37.974;23.708;2023-04-29T14:53:16;24.20;37.10
80250;DHT22;69561;37.974;23.708;2023-04-29T14:55:43;24.20;37.10
80250;DHT22;69561;37.974;23.708;2023-04-29T14:58:08;24.20;37.10
80250;DHT22;69561;37.974;23.708;2023-04-29T15:00:34;24.20;37.10
80250;DHT22;69561;37.974;23.708;2023-04-29T15:03:00;24.20;37.10
80250;DHT22;69561;37.974;23.708;2023-04-29T15:05:26;24.20;37.10
80250;DHT22;69561;37.974;23.708;2023-04-29T15:07:54;24.20;37.10
80250;DHT22;69561;37.974;23.708;2023-04-29T15:10:22;24.20;37.10
80250;DHT22;69561;37.974;23.708;2023-04-29T15:12:48;24.10;37.10
80250;DHT22;69561;37.974;23.708;2023-04-29T15:15:17;24.20;37.10
80250;DHT22;69561;37.974;23.708;2023-04-29T15:17:42;24.20;37.10
80250;DHT22;69561;37.974;23.708;2023-04-29T15:20:09;24.20;37.10
80250;DHT22;69561;37.974;23.708;2023-04-29T15:22:35;24.20;37.10
80250;DHT22;69561;37.974;23.708;2023-04-29T15:25:01;24.20;37.10
80250;DHT22;69561;37.974;23.708;2023-04-29T15:27:27;24.10;37.10
80250;DHT22;69561;37.974;23.708;2023-04-29T15:29:53;24.10;37.20
80250;DHT22;69561;37.974;23.708;2023-04-29T15:32:21;24.10;37.10
80250;DHT22;69561;37.974;23.708;2023-04-29T15:34:49;24.10;37.10
80250;DHT22;69561;37.974;23.708;2023-04-29T15:37:15;24.10;37.20
80250;DHT22;69561;37.974;23.708;2023-04-29T15:39:40;24.10;37.20
80250;DHT22;69561;37.974;23.708;2023-04-29T15:42:06;24.10;37.20